sensor_id;sensor_type;location;lat;lon;timestamp;P1;durP1;ratioP1;P2;durP2;ratioP2
51987;SDS011;38003;52.012;4.346;2022-12-29T00:01:45;3.77;;;2.53;;
51987;SDS011;38003;52.012;4.346;2022-12-29T00:04:13;3.70;;;2.50;;
51987;SDS011;38003;52.012;4.346;2022-12-29T00:06:42;2.43;;;2.20;;
51987;SDS011;38003;52.012;4.346;2022-12-29T00:09:10;2.97;;;2.47;;
51987;SDS011;38003;52.012;4.346;2022-12-29T00:11:40;2.37;;;2.17;;
51987;SDS011;38003;52.012;4.346;2022-12-29T00:14:08;3.27;;;2.20;;
51987;SDS011;38003;52.012;4.346;2022-12-29T00:16:54;2.67;;;2.13;;
51987;SDS011;38003;52.012;4.346;2022-12-29T00:19:22;3.20;;;2.37;;
51987;SDS011;38003;52.012;4.346;2022-12-29T00:22:08;4.70;;;2.40;;
51987;SDS011;38003;52.012;4.346;2022-12-29T00:24:54;3.27;;;2.00;;
51987;SDS011;38003;52.012;4.346;2022-12-29T00:27:37;3.53;;;2.03;;
51987;SDS011;38003;52.012;4.346;2022-12-29T00:30:30;2.83;;;1.83;;
51987;SDS011;38003;52.012;4.346;2022-12-29T00:33:16;2.30;;;1.80;;
51987;SDS011;38003;52.012;4.346;2022-12-29T00:36:03;5.63;;;2.10;;
51987;SDS011;38003;52.012;4.346;2022-12-29T00:38:34;3.00;;;2.17;;
51987;SDS011;38003;52.012;4.346;2022-12-29T00:41:22;3.03;;;1.73;;
51987;SDS011;38003;52.012;4.346;2022-12-29T00:44:10;3.33;;;1.60;;
51987;SDS011;38003;52.012;4.346;2022-12-29T00:46:40;2.37;;;1.57;;
51987;SDS011;38003;52.012;4.346;2022-12-29T00:49:10;1.60;;;1.50;;
51987;SDS011;38003;52.012;4.346;2022-12-29T00:51:58;2.60;;;1.80;;
51987;SDS011;38003;52.012;4.346;2022-12-29T00:54:28;2.77;;;1.90;;
51987;SDS011;38003;52.012;4.346;2022-12-29T00:56:57;2.80;;;1.87;;
51987;SDS011;38003;52.012;4.346;2022-12-29T00:59:26;3.07;;;1.60;;
51987;SDS011;38003;52.012;4.346;2022-12-29T01:01:54;2.23;;;1.60;;
51987;SDS011;38003;52.012;4.346;2022-12-29T01:04:23;2.57;;;1.80;;
51987;SDS011;38003;52.012;4.346;2022-12-29T01:06:52;1.70;;;1.60;;
51987;SDS011;38003;52.012;4.346;2022-12-29T01:09:20;2.57;;;1.50;;
51987;SDS011;38003;52.012;4.346;2022-12-29T01:12:06;2.37;;;1.80;;
51987;SDS011;38003;52.012;4.346;2022-12-29T01:14:37;2.70;;;1.70;;
51987;SDS011;38003;52.012;4.346;2022-12-29T01:17:05;4.00;;;2.00;;
51987;SDS011;38003;52.012;4.346;2022-12-29T01:19:33;2.87;;;1.80;;
51987;SDS011;38003;52.012;4.346;2022-12-29T01:22:01;3.10;;;1.80;;
51987;SDS011;38003;52.012;4.346;2022-12-29T01:24:29;2.87;;;1.90;;
51987;SDS011;38003;52.012;4.346;2022-12-29T01:26:57;4.37;;;1.80;;
51987;SDS011;38003;52.012;4.346;2022-12-29T01:29:25;4.10;;;1.80;;
51987;SDS011;38003;52.012;4.346;2022-12-29T01:31:54;3.40;;;1.30;;
51987;SDS011;38003;52.012;4.346;2022-12-29T01:34:22;4.43;;;1.60;;
51987;SDS011;38003;52.012;4.346;2022-12-29T01:36:50;3.63;;;2.03;;
51987;SDS011;38003;52.012;4.346;2022-12-29T01:39:18;6.47;;;1.43;;
51987;SDS011;38003;52.012;4.346;2022-12-29T01:41:45;3.90;;;1.70;;
51987;SDS011;38003;52.012;4.346;2022-12-29T01:47:16;4.60;;;1.27;;
51987;SDS011;38003;52.012;4.346;2022-12-29T01:49:50;2.30;;;1.00;;
51987;SDS011;38003;52.012;4.346;2022-12-29T01:52:19;4.23;;;1.47;;
51987;SDS011;38003;52.012;4.346;2022-12-29T01:54:50;2.50;;;1.20;;
51987;SDS011;38003;52.012;4.346;2022-12-29T01:57:21;6.60;;;1.87;;
51987;SDS011;38003;52.012;4.346;2022-12-29T01:59:53;6.20;;;1.50;;
51987;SDS011;38003;52.012;4.346;2022-12-29T02:02:25;7.80;;;1.63;;
51987;SDS011;38003;52.012;4.346;2022-12-29T02:04:58;3.63;;;1.07;;
51987;SDS011;38003;52.012;4.346;2022-12-29T02:07:30;5.30;;;1.20;;
51987;SDS011;38003;52.012;4.346;2022-12-29T02:09:59;5.43;;;1.37;;
51987;SDS011;38003;52.012;4.346;2022-12-29T02:12:28;8.30;;;1.30;;
51987;SDS011;38003;52.012;4.346;2022-12-29T02:14:57;10.70;;;1.97;;
51987;SDS011;38003;52.012;4.346;2022-12-29T02:17:34;3.87;;;1.37;;
51987;SDS011;38003;52.012;4.346;2022-12-29T02:26:25;4.47;;;1.07;;
51987;SDS011;38003;52.012;4.346;2022-12-29T02:29:08;4.93;;;1.30;;
51987;SDS011;38003;52.012;4.346;2022-12-29T02:32:00;3.97;;;1.37;;
51987;SDS011;38003;52.012;4.346;2022-12-29T02:34:32;4.77;;;1.40;;
51987;SDS011;38003;52.012;4.346;2022-12-29T02:37:13;5.87;;;1.47;;
51987;SDS011;38003;52.012;4.346;2022-12-29T02:39:48;6.23;;;1.47;;
51987;SDS011;38003;52.012;4.346;2022-12-29T02:42:21;5.13;;;1.70;;
51987;SDS011;38003;52.012;4.346;2022-12-29T02:44:57;7.03;;;1.50;;
51987;SDS011;38003;52.012;4.346;2022-12-29T02:47:33;6.27;;;1.63;;
51987;SDS011;38003;52.012;4.346;2022-12-29T02:50:06;8.00;;;2.13;;
51987;SDS011;38003;52.012;4.346;2022-12-29T02:52:37;9.17;;;2.00;;
51987;SDS011;38003;52.012;4.346;2022-12-29T02:55:11;12.77;;;2.10;;
51987;SDS011;38003;52.012;4.346;2022-12-29T02:57:38;13.90;;;2.80;;
51987;SDS011;38003;52.012;4.346;2022-12-29T03:00:07;11.40;;;2.03;;
51987;SDS011;38003;52.012;4.346;2022-12-29T03:02:46;12.40;;;2.17;;
51987;SDS011;38003;52.012;4.346;2022-12-29T03:05:32;13.93;;;2.33;;
51987;SDS011;38003;52.012;4.346;2022-12-29T03:08:14;9.90;;;2.27;;
51987;SDS011;38003;52.012;4.346;2022-12-29T03:10:51;10.63;;;2.23;;
51987;SDS011;38003;52.012;4.346;2022-12-29T03:13:27;12.43;;;2.00;;
51987;SDS011;38003;52.012;4.346;2022-12-29T03:16:19;8.87;;;1.57;;
51987;SDS011;38003;52.012;4.346;2022-12-29T03:18:57;6.23;;;1.80;;
51987;SDS011;38003;52.012;4.346;2022-12-29T03:21:30;12.70;;;1.83;;
51987;SDS011;38003;52.012;4.346;2022-12-29T03:24:19;4.40;;;1.10;;
51987;SDS011;38003;52.012;4.346;2022-12-29T03:26:50;8.50;;;2.07;;
51987;SDS011;38003;52.012;4.346;2022-12-29T03:29:22;9.77;;;2.30;;
51987;SDS011;38003;52.012;4.346;2022-12-29T03:31:51;6.83;;;1.50;;
51987;SDS011;38003;52.012;4.346;2022-12-29T03:34:21;6.20;;;1.57;;
51987;SDS011;38003;52.012;4.346;2022-12-29T03:36:52;8.27;;;1.67;;
51987;SDS011;38003;52.012;4.346;2022-12-29T03:39:23;11.90;;;1.87;;
51987;SDS011;38003;52.012;4.346;2022-12-29T03:41:53;8.77;;;2.07;;
51987;SDS011;38003;52.012;4.346;2022-12-29T03:44:31;9.20;;;1.80;;
51987;SDS011;38003;52.012;4.346;2022-12-29T03:47:00;5.47;;;1.57;;
51987;SDS011;38003;52.012;4.346;2022-12-29T03:49:29;4.53;;;1.40;;
51987;SDS011;38003;52.012;4.346;2022-12-29T03:51:57;6.77;;;1.50;;
51987;SDS011;38003;52.012;4.346;2022-12-29T03:54:25;10.20;;;1.83;;
51987;SDS011;38003;52.012;4.346;2022-12-29T03:56:53;6.30;;;1.37;;
51987;SDS011;38003;52.012;4.346;2022-12-29T03:59:21;10.27;;;1.90;;
51987;SDS011;38003;52.012;4.346;2022-12-29T04:01:48;7.43;;;1.83;;
51987;SDS011;38003;52.012;4.346;2022-12-29T04:04:17;7.73;;;1.73;;
51987;SDS011;38003;52.012;4.346;2022-12-29T04:06:46;8.63;;;1.77;;
51987;SDS011;38003;52.012;4.346;2022-12-29T04:09:14;5.63;;;1.30;;
51987;SDS011;38003;52.012;4.346;2022-12-29T04:11:42;13.33;;;2.40;;
51987;SDS011;38003;52.012;4.346;2022-12-29T04:14:10;7.70;;;2.20;;
51987;SDS011;38003;52.012;4.346;2022-12-29T04:16:39;14.77;;;2.20;;
51987;SDS011;38003;52.012;4.346;2022-12-29T04:19:07;11.97;;;2.40;;
51987;SDS011;38003;52.012;4.346;2022-12-29T04:21:35;9.30;;;2.03;;
51987;SDS011;38003;52.012;4.346;2022-12-29T04:24:04;11.33;;;2.33;;
51987;SDS011;38003;52.012;4.346;2022-12-29T04:26:33;10.63;;;2.27;;
51987;SDS011;38003;52.012;4.346;2022-12-29T04:29:01;9.63;;;2.37;;
51987;SDS011;38003;52.012;4.346;2022-12-29T04:31:28;10.07;;;1.90;;
51987;SDS011;38003;52.012;4.346;2022-12-29T04:33:56;10.13;;;2.03;;
51987;SDS011;38003;52.012;4.346;2022-12-29T04:36:26;6.93;;;1.50;;
51987;SDS011;38003;52.012;4.346;2022-12-29T04:38:55;9.97;;;2.40;;
51987;SDS011;38003;52.012;4.346;2022-12-29T04:41:24;12.57;;;2.30;;
51987;SDS011;38003;52.012;4.346;2022-12-29T04:43:52;9.67;;;1.87;;
51987;SDS011;38003;52.012;4.346;2022-12-29T04:46:20;11.77;;;2.47;;
51987;SDS011;38003;52.012;4.346;2022-12-29T04:48:48;14.17;;;2.57;;
51987;SDS011;38003;52.012;4.346;2022-12-29T04:51:16;10.77;;;2.83;;
51987;SDS011;38003;52.012;4.346;2022-12-29T04:53:44;8.40;;;1.80;;
51987;SDS011;38003;52.012;4.346;2022-12-29T04:56:12;9.13;;;2.30;;
51987;SDS011;38003;52.012;4.346;2022-12-29T04:58:41;10.43;;;2.43;;
51987;SDS011;38003;52.012;4.346;2022-12-29T05:01:09;9.43;;;2.40;;
51987;SDS011;38003;52.012;4.346;2022-12-29T05:03:37;10.73;;;2.30;;
51987;SDS011;38003;52.012;4.346;2022-12-29T05:06:05;9.20;;;2.20;;
51987;SDS011;38003;52.012;4.346;2022-12-29T05:08:34;10.90;;;2.13;;
51987;SDS011;38003;52.012;4.346;2022-12-29T05:11:02;12.30;;;2.33;;
51987;SDS011;38003;52.012;4.346;2022-12-29T05:13:29;14.77;;;2.40;;
51987;SDS011;38003;52.012;4.346;2022-12-29T05:16:00;13.53;;;2.60;;
51987;SDS011;38003;52.012;4.346;2022-12-29T05:18:28;9.17;;;2.47;;
51987;SDS011;38003;52.012;4.346;2022-12-29T05:20:55;11.23;;;3.03;;
51987;SDS011;38003;52.012;4.346;2022-12-29T05:23:23;13.87;;;2.20;;
51987;SDS011;38003;52.012;4.346;2022-12-29T05:25:51;10.80;;;2.23;;
51987;SDS011;38003;52.012;4.346;2022-12-29T05:28:19;13.20;;;2.57;;
51987;SDS011;38003;52.012;4.346;2022-12-29T05:30:47;14.97;;;2.67;;
51987;SDS011;38003;52.012;4.346;2022-12-29T05:33:17;12.47;;;2.63;;
51987;SDS011;38003;52.012;4.346;2022-12-29T05:35:46;9.77;;;2.67;;
51987;SDS011;38003;52.012;4.346;2022-12-29T05:38:14;11.77;;;2.50;;
51987;SDS011;38003;52.012;4.346;2022-12-29T05:40:43;19.53;;;2.83;;
51987;SDS011;38003;52.012;4.346;2022-12-29T05:43:11;17.10;;;2.50;;
51987;SDS011;38003;52.012;4.346;2022-12-29T05:45:39;18.53;;;3.33;;
51987;SDS011;38003;52.012;4.346;2022-12-29T05:48:07;17.90;;;3.07;;
51987;SDS011;38003;52.012;4.346;2022-12-29T05:50:36;19.70;;;2.87;;
51987;SDS011;38003;52.012;4.346;2022-12-29T05:53:04;17.13;;;2.90;;
51987;SDS011;38003;52.012;4.346;2022-12-29T05:55:32;12.33;;;2.60;;
51987;SDS011;38003;52.012;4.346;2022-12-29T05:58:01;14.47;;;2.83;;
51987;SDS011;38003;52.012;4.346;2022-12-29T06:00:29;7.43;;;2.03;;
51987;SDS011;38003;52.012;4.346;2022-12-29T06:02:57;16.23;;;2.90;;
51987;SDS011;38003;52.012;4.346;2022-12-29T06:05:25;14.77;;;3.00;;
51987;SDS011;38003;52.012;4.346;2022-12-29T06:07:54;17.93;;;2.63;;
51987;SDS011;38003;52.012;4.346;2022-12-29T06:10:22;11.83;;;3.23;;
51987;SDS011;38003;52.012;4.346;2022-12-29T06:12:50;12.30;;;3.00;;
51987;SDS011;38003;52.012;4.346;2022-12-29T06:15:18;19.57;;;3.20;;
51987;SDS011;38003;52.012;4.346;2022-12-29T06:17:46;17.40;;;3.30;;
51987;SDS011;38003;52.012;4.346;2022-12-29T06:20:14;15.73;;;2.67;;
51987;SDS011;38003;52.012;4.346;2022-12-29T06:22:42;16.17;;;3.10;;
51987;SDS011;38003;52.012;4.346;2022-12-29T06:25:11;12.17;;;2.33;;
51987;SDS011;38003;52.012;4.346;2022-12-29T06:27:39;15.53;;;3.10;;
51987;SDS011;38003;52.012;4.346;2022-12-29T06:30:07;9.60;;;2.30;;
51987;SDS011;38003;52.012;4.346;2022-12-29T06:32:37;18.77;;;2.83;;
51987;SDS011;38003;52.012;4.346;2022-12-29T06:35:05;16.17;;;2.87;;
51987;SDS011;38003;52.012;4.346;2022-12-29T06:37:33;12.80;;;2.53;;
51987;SDS011;38003;52.012;4.346;2022-12-29T06:40:01;17.30;;;3.03;;
51987;SDS011;38003;52.012;4.346;2022-12-29T06:42:31;21.47;;;4.00;;
51987;SDS011;38003;52.012;4.346;2022-12-29T06:44:59;16.40;;;2.63;;
51987;SDS011;38003;52.012;4.346;2022-12-29T06:47:27;17.40;;;3.13;;
51987;SDS011;38003;52.012;4.346;2022-12-29T06:49:55;15.57;;;2.93;;
51987;SDS011;38003;52.012;4.346;2022-12-29T06:52:22;11.13;;;2.40;;
51987;SDS011;38003;52.012;4.346;2022-12-29T06:54:50;16.83;;;2.90;;
51987;SDS011;38003;52.012;4.346;2022-12-29T06:57:18;14.93;;;2.97;;
51987;SDS011;38003;52.012;4.346;2022-12-29T06:59:47;9.67;;;2.40;;
51987;SDS011;38003;52.012;4.346;2022-12-29T07:02:15;13.87;;;2.57;;
51987;SDS011;38003;52.012;4.346;2022-12-29T07:04:44;10.97;;;2.20;;
51987;SDS011;38003;52.012;4.346;2022-12-29T07:07:12;13.03;;;2.30;;
51987;SDS011;38003;52.012;4.346;2022-12-29T07:09:40;11.93;;;2.20;;
51987;SDS011;38003;52.012;4.346;2022-12-29T07:12:08;11.60;;;2.43;;
51987;SDS011;38003;52.012;4.346;2022-12-29T07:14:36;11.13;;;2.50;;
51987;SDS011;38003;52.012;4.346;2022-12-29T07:17:10;11.33;;;2.20;;
51987;SDS011;38003;52.012;4.346;2022-12-29T07:19:38;15.00;;;2.67;;
51987;SDS011;38003;52.012;4.346;2022-12-29T07:22:05;11.27;;;2.00;;
51987;SDS011;38003;52.012;4.346;2022-12-29T07:24:33;13.27;;;2.40;;
51987;SDS011;38003;52.012;4.346;2022-12-29T07:27:01;12.30;;;2.43;;
51987;SDS011;38003;52.012;4.346;2022-12-29T07:29:29;13.07;;;3.03;;
51987;SDS011;38003;52.012;4.346;2022-12-29T07:31:57;17.50;;;2.97;;
51987;SDS011;38003;52.012;4.346;2022-12-29T07:34:26;14.40;;;2.93;;
51987;SDS011;38003;52.012;4.346;2022-12-29T07:36:54;13.03;;;3.50;;
51987;SDS011;38003;52.012;4.346;2022-12-29T07:39:22;14.67;;;2.77;;
51987;SDS011;38003;52.012;4.346;2022-12-29T07:41:50;16.40;;;2.90;;
51987;SDS011;38003;52.012;4.346;2022-12-29T07:44:18;10.83;;;2.70;;
51987;SDS011;38003;52.012;4.346;2022-12-29T07:46:45;15.53;;;3.20;;
51987;SDS011;38003;52.012;4.346;2022-12-29T07:49:22;6.03;;;1.70;;
51987;SDS011;38003;52.012;4.346;2022-12-29T07:51:51;11.87;;;2.37;;
51987;SDS011;38003;52.012;4.346;2022-12-29T07:54:19;13.87;;;3.27;;
51987;SDS011;38003;52.012;4.346;2022-12-29T07:56:49;15.60;;;2.80;;
51987;SDS011;38003;52.012;4.346;2022-12-29T07:59:17;17.73;;;3.53;;
51987;SDS011;38003;52.012;4.346;2022-12-29T08:01:45;16.03;;;3.33;;
51987;SDS011;38003;52.012;4.346;2022-12-29T08:04:13;13.00;;;2.80;;
51987;SDS011;38003;52.012;4.346;2022-12-29T08:06:41;14.13;;;3.00;;
51987;SDS011;38003;52.012;4.346;2022-12-29T08:09:10;12.03;;;3.97;;
51987;SDS011;38003;52.012;4.346;2022-12-29T08:11:47;15.87;;;3.20;;
51987;SDS011;38003;52.012;4.346;2022-12-29T08:14:15;15.10;;;4.00;;
51987;SDS011;38003;52.012;4.346;2022-12-29T08:16:43;16.13;;;2.80;;
51987;SDS011;38003;52.012;4.346;2022-12-29T08:19:11;13.93;;;3.00;;
51987;SDS011;38003;52.012;4.346;2022-12-29T08:21:39;12.63;;;2.53;;
51987;SDS011;38003;52.012;4.346;2022-12-29T08:24:08;16.67;;;3.60;;
51987;SDS011;38003;52.012;4.346;2022-12-29T08:26:37;18.17;;;2.60;;
51987;SDS011;38003;52.012;4.346;2022-12-29T08:29:05;19.40;;;2.87;;
51987;SDS011;38003;52.012;4.346;2022-12-29T08:31:34;13.87;;;2.87;;
51987;SDS011;38003;52.012;4.346;2022-12-29T08:34:02;17.17;;;3.07;;
51987;SDS011;38003;52.012;4.346;2022-12-29T08:36:30;10.90;;;2.93;;
51987;SDS011;38003;52.012;4.346;2022-12-29T08:38:58;13.80;;;3.10;;
51987;SDS011;38003;52.012;4.346;2022-12-29T08:41:26;9.83;;;2.53;;
51987;SDS011;38003;52.012;4.346;2022-12-29T08:43:55;12.40;;;2.90;;
51987;SDS011;38003;52.012;4.346;2022-12-29T08:46:23;16.60;;;3.23;;
51987;SDS011;38003;52.012;4.346;2022-12-29T08:48:51;15.30;;;3.13;;
51987;SDS011;38003;52.012;4.346;2022-12-29T08:51:19;19.87;;;3.00;;
51987;SDS011;38003;52.012;4.346;2022-12-29T08:53:50;15.77;;;2.90;;
51987;SDS011;38003;52.012;4.346;2022-12-29T08:56:18;16.00;;;2.93;;
51987;SDS011;38003;52.012;4.346;2022-12-29T08:58:46;11.17;;;2.37;;
51987;SDS011;38003;52.012;4.346;2022-12-29T09:01:15;13.23;;;3.00;;
51987;SDS011;38003;52.012;4.346;2022-12-29T09:03:43;13.50;;;2.70;;
51987;SDS011;38003;52.012;4.346;2022-12-29T09:06:31;17.43;;;3.53;;
51987;SDS011;38003;52.012;4.346;2022-12-29T09:09:05;12.13;;;2.53;;
51987;SDS011;38003;52.012;4.346;2022-12-29T09:11:33;13.73;;;2.60;;
51987;SDS011;38003;52.012;4.346;2022-12-29T09:14:01;14.90;;;3.10;;
51987;SDS011;38003;52.012;4.346;2022-12-29T09:16:30;19.97;;;3.53;;
51987;SDS011;38003;52.012;4.346;2022-12-29T09:18:59;16.20;;;2.63;;
51987;SDS011;38003;52.012;4.346;2022-12-29T09:21:27;20.93;;;3.33;;
51987;SDS011;38003;52.012;4.346;2022-12-29T09:23:54;18.40;;;3.33;;
51987;SDS011;38003;52.012;4.346;2022-12-29T09:26:22;14.83;;;3.00;;
51987;SDS011;38003;52.012;4.346;2022-12-29T09:28:50;20.17;;;3.83;;
51987;SDS011;38003;52.012;4.346;2022-12-29T09:31:18;14.87;;;3.60;;
51987;SDS011;38003;52.012;4.346;2022-12-29T09:33:47;18.17;;;3.70;;
51987;SDS011;38003;52.012;4.346;2022-12-29T09:36:15;18.13;;;3.80;;
51987;SDS011;38003;52.012;4.346;2022-12-29T09:38:43;19.33;;;3.87;;
51987;SDS011;38003;52.012;4.346;2022-12-29T09:41:13;15.07;;;3.70;;
51987;SDS011;38003;52.012;4.346;2022-12-29T09:43:57;23.13;;;4.27;;
51987;SDS011;38003;52.012;4.346;2022-12-29T09:46:31;22.77;;;4.23;;
51987;SDS011;38003;52.012;4.346;2022-12-29T09:49:08;19.90;;;3.87;;
51987;SDS011;38003;52.012;4.346;2022-12-29T09:51:45;17.37;;;3.93;;
51987;SDS011;38003;52.012;4.346;2022-12-29T09:54:20;24.40;;;3.63;;
51987;SDS011;38003;52.012;4.346;2022-12-29T09:56:53;21.73;;;3.70;;
51987;SDS011;38003;52.012;4.346;2022-12-29T09:59:23;22.10;;;4.43;;
51987;SDS011;38003;52.012;4.346;2022-12-29T10:01:55;25.83;;;4.40;;
51987;SDS011;38003;52.012;4.346;2022-12-29T10:04:31;28.30;;;4.43;;
51987;SDS011;38003;52.012;4.346;2022-12-29T10:07:00;27.43;;;5.53;;
51987;SDS011;38003;52.012;4.346;2022-12-29T10:09:53;23.97;;;4.83;;
51987;SDS011;38003;52.012;4.346;2022-12-29T10:12:31;20.97;;;4.57;;
51987;SDS011;38003;52.012;4.346;2022-12-29T10:15:14;23.47;;;4.17;;
51987;SDS011;38003;52.012;4.346;2022-12-29T10:17:54;29.90;;;5.33;;
51987;SDS011;38003;52.012;4.346;2022-12-29T10:20:31;26.90;;;4.53;;
51987;SDS011;38003;52.012;4.346;2022-12-29T10:23:10;24.40;;;4.70;;
51987;SDS011;38003;52.012;4.346;2022-12-29T10:25:46;21.47;;;4.13;;
51987;SDS011;38003;52.012;4.346;2022-12-29T10:28:17;20.47;;;3.80;;
51987;SDS011;38003;52.012;4.346;2022-12-29T10:30:48;19.77;;;3.40;;
51987;SDS011;38003;52.012;4.346;2022-12-29T10:33:19;20.23;;;4.13;;
51987;SDS011;38003;52.012;4.346;2022-12-29T10:35:51;24.37;;;4.77;;
51987;SDS011;38003;52.012;4.346;2022-12-29T10:38:22;22.23;;;3.73;;
51987;SDS011;38003;52.012;4.346;2022-12-29T10:40:56;12.73;;;3.03;;
51987;SDS011;38003;52.012;4.346;2022-12-29T10:43:27;15.10;;;3.60;;
51987;SDS011;38003;52.012;4.346;2022-12-29T10:45:57;18.70;;;3.43;;
51987;SDS011;38003;52.012;4.346;2022-12-29T10:48:30;11.47;;;3.50;;
51987;SDS011;38003;52.012;4.346;2022-12-29T10:51:01;14.67;;;2.73;;
51987;SDS011;38003;52.012;4.346;2022-12-29T10:53:33;11.53;;;2.93;;
51987;SDS011;38003;52.012;4.346;2022-12-29T10:56:17;17.17;;;3.70;;
51987;SDS011;38003;52.012;4.346;2022-12-29T10:58:54;15.27;;;2.97;;
51987;SDS011;38003;52.012;4.346;2022-12-29T11:01:28;20.43;;;3.87;;
51987;SDS011;38003;52.012;4.346;2022-12-29T11:04:04;25.27;;;4.33;;
51987;SDS011;38003;52.012;4.346;2022-12-29T11:06:41;14.33;;;3.20;;
51987;SDS011;38003;52.012;4.346;2022-12-29T11:09:12;20.17;;;3.83;;
51987;SDS011;38003;52.012;4.346;2022-12-29T11:11:43;11.37;;;3.10;;
51987;SDS011;38003;52.012;4.346;2022-12-29T11:14:12;16.63;;;3.17;;
51987;SDS011;38003;52.012;4.346;2022-12-29T11:16:41;15.10;;;2.60;;
51987;SDS011;38003;52.012;4.346;2022-12-29T11:19:21;18.13;;;3.03;;
51987;SDS011;38003;52.012;4.346;2022-12-29T11:21:51;12.20;;;2.63;;
51987;SDS011;38003;52.012;4.346;2022-12-29T11:24:20;11.00;;;2.27;;
51987;SDS011;38003;52.012;4.346;2022-12-29T11:26:50;14.17;;;3.20;;
51987;SDS011;38003;52.012;4.346;2022-12-29T11:29:24;21.70;;;3.57;;
51987;SDS011;38003;52.012;4.346;2022-12-29T11:31:53;12.33;;;2.80;;
51987;SDS011;38003;52.012;4.346;2022-12-29T11:34:25;12.13;;;2.80;;
51987;SDS011;38003;52.012;4.346;2022-12-29T11:37:00;14.47;;;3.00;;
51987;SDS011;38003;52.012;4.346;2022-12-29T11:39:32;16.40;;;2.90;;
51987;SDS011;38003;52.012;4.346;2022-12-29T11:42:03;14.37;;;2.47;;
51987;SDS011;38003;52.012;4.346;2022-12-29T11:44:36;15.27;;;2.40;;
51987;SDS011;38003;52.012;4.346;2022-12-29T11:47:08;10.00;;;2.67;;
51987;SDS011;38003;52.012;4.346;2022-12-29T11:49:49;11.57;;;1.93;;
51987;SDS011;38003;52.012;4.346;2022-12-29T11:52:21;13.73;;;2.57;;
51987;SDS011;38003;52.012;4.346;2022-12-29T11:54:50;12.73;;;2.67;;
51987;SDS011;38003;52.012;4.346;2022-12-29T11:57:20;14.93;;;3.37;;
51987;SDS011;38003;52.012;4.346;2022-12-29T11:59:50;18.57;;;2.97;;
51987;SDS011;38003;52.012;4.346;2022-12-29T12:02:32;20.87;;;3.13;;
51987;SDS011;38003;52.012;4.346;2022-12-29T12:05:10;21.30;;;3.77;;
51987;SDS011;38003;52.012;4.346;2022-12-29T12:07:49;16.90;;;3.27;;
51987;SDS011;38003;52.012;4.346;2022-12-29T12:10:21;19.40;;;3.73;;
51987;SDS011;38003;52.012;4.346;2022-12-29T12:12:54;17.03;;;3.63;;
51987;SDS011;38003;52.012;4.346;2022-12-29T12:15:29;15.27;;;2.80;;
51987;SDS011;38003;52.012;4.346;2022-12-29T12:18:11;14.77;;;2.63;;
51987;SDS011;38003;52.012;4.346;2022-12-29T12:20:46;15.80;;;3.13;;
51987;SDS011;38003;52.012;4.346;2022-12-29T12:23:25;9.40;;;2.23;;
51987;SDS011;38003;52.012;4.346;2022-12-29T12:26:02;10.23;;;2.70;;
51987;SDS011;38003;52.012;4.346;2022-12-29T12:28:37;19.40;;;2.97;;
51987;SDS011;38003;52.012;4.346;2022-12-29T12:31:15;11.20;;;3.00;;
51987;SDS011;38003;52.012;4.346;2022-12-29T12:33:50;12.10;;;1.73;;
51987;SDS011;38003;52.012;4.346;2022-12-29T12:36:32;7.77;;;2.10;;
51987;SDS011;38003;52.012;4.346;2022-12-29T12:39:25;6.47;;;1.93;;
51987;SDS011;38003;52.012;4.346;2022-12-29T12:41:57;7.37;;;1.90;;
51987;SDS011;38003;52.012;4.346;2022-12-29T12:44:43;12.30;;;2.30;;
51987;SDS011;38003;52.012;4.346;2022-12-29T12:47:28;13.80;;;2.70;;
51987;SDS011;38003;52.012;4.346;2022-12-29T12:50:15;11.57;;;2.77;;
51987;SDS011;38003;52.012;4.346;2022-12-29T12:53:01;11.27;;;3.67;;
51987;SDS011;38003;52.012;4.346;2022-12-29T12:55:58;13.90;;;3.57;;
51987;SDS011;38003;52.012;4.346;2022-12-29T12:58:49;11.77;;;2.33;;
51987;SDS011;38003;52.012;4.346;2022-12-29T13:01:24;10.23;;;2.50;;
51987;SDS011;38003;52.012;4.346;2022-12-29T13:04:08;9.57;;;2.60;;
51987;SDS011;38003;52.012;4.346;2022-12-29T13:06:51;15.03;;;2.90;;
51987;SDS011;38003;52.012;4.346;2022-12-29T13:09:29;11.93;;;2.77;;
51987;SDS011;38003;52.012;4.346;2022-12-29T13:12:15;11.97;;;2.63;;
51987;SDS011;38003;52.012;4.346;2022-12-29T13:14:58;16.40;;;3.00;;
51987;SDS011;38003;52.012;4.346;2022-12-29T13:17:37;15.47;;;2.70;;
51987;SDS011;38003;52.012;4.346;2022-12-29T13:20:16;12.67;;;2.83;;
51987;SDS011;38003;52.012;4.346;2022-12-29T13:22:51;17.40;;;3.20;;
51987;SDS011;38003;52.012;4.346;2022-12-29T13:25:27;16.23;;;3.10;;
51987;SDS011;38003;52.012;4.346;2022-12-29T13:28:02;12.77;;;3.20;;
51987;SDS011;38003;52.012;4.346;2022-12-29T13:30:39;15.03;;;3.07;;
51987;SDS011;38003;52.012;4.346;2022-12-29T13:33:14;10.87;;;2.50;;
51987;SDS011;38003;52.012;4.346;2022-12-29T13:35:54;11.13;;;2.60;;
51987;SDS011;38003;52.012;4.346;2022-12-29T13:38:29;13.20;;;2.00;;
51987;SDS011;38003;52.012;4.346;2022-12-29T13:41:01;15.63;;;2.77;;
51987;SDS011;38003;52.012;4.346;2022-12-29T13:43:35;12.83;;;2.03;;
51987;SDS011;38003;52.012;4.346;2022-12-29T13:46:07;7.67;;;2.00;;
51987;SDS011;38003;52.012;4.346;2022-12-29T13:48:41;9.33;;;2.20;;
51987;SDS011;38003;52.012;4.346;2022-12-29T13:51:13;11.60;;;2.10;;
51987;SDS011;38003;52.012;4.346;2022-12-29T13:54:05;9.97;;;2.40;;
51987;SDS011;38003;52.012;4.346;2022-12-29T13:56:41;8.53;;;2.23;;
51987;SDS011;38003;52.012;4.346;2022-12-29T13:59:19;10.70;;;2.30;;
51987;SDS011;38003;52.012;4.346;2022-12-29T14:01:54;11.73;;;2.57;;
51987;SDS011;38003;52.012;4.346;2022-12-29T14:04:28;9.77;;;2.33;;
51987;SDS011;38003;52.012;4.346;2022-12-29T14:07:00;15.87;;;2.63;;
51987;SDS011;38003;52.012;4.346;2022-12-29T14:12:21;9.10;;;1.90;;
51987;SDS011;38003;52.012;4.346;2022-12-29T14:15:03;13.57;;;2.27;;
51987;SDS011;38003;52.012;4.346;2022-12-29T14:17:33;11.17;;;2.30;;
51987;SDS011;38003;52.012;4.346;2022-12-29T14:20:01;10.40;;;2.07;;
51987;SDS011;38003;52.012;4.346;2022-12-29T14:22:31;12.50;;;2.93;;
51987;SDS011;38003;52.012;4.346;2022-12-29T14:24:58;12.37;;;2.00;;
51987;SDS011;38003;52.012;4.346;2022-12-29T14:27:43;9.73;;;2.03;;
51987;SDS011;38003;52.012;4.346;2022-12-29T14:33:16;11.87;;;2.37;;
51987;SDS011;38003;52.012;4.346;2022-12-29T14:35:46;11.50;;;2.50;;
51987;SDS011;38003;52.012;4.346;2022-12-29T14:38:19;9.47;;;2.30;;
51987;SDS011;38003;52.012;4.346;2022-12-29T14:40:49;9.13;;;2.27;;
51987;SDS011;38003;52.012;4.346;2022-12-29T14:43:19;9.80;;;2.53;;
51987;SDS011;38003;52.012;4.346;2022-12-29T14:45:56;14.67;;;2.10;;
51987;SDS011;38003;52.012;4.346;2022-12-29T14:48:29;9.73;;;2.60;;
51987;SDS011;38003;52.012;4.346;2022-12-29T14:51:15;10.83;;;2.53;;
51987;SDS011;38003;52.012;4.346;2022-12-29T14:53:51;11.13;;;2.10;;
51987;SDS011;38003;52.012;4.346;2022-12-29T14:56:20;9.00;;;1.97;;
51987;SDS011;38003;52.012;4.346;2022-12-29T14:58:53;9.13;;;2.23;;
51987;SDS011;38003;52.012;4.346;2022-12-29T15:01:25;15.00;;;2.67;;
51987;SDS011;38003;52.012;4.346;2022-12-29T15:04:03;9.43;;;2.20;;
51987;SDS011;38003;52.012;4.346;2022-12-29T15:06:40;14.40;;;3.37;;
51987;SDS011;38003;52.012;4.346;2022-12-29T15:09:12;7.90;;;1.70;;
51987;SDS011;38003;52.012;4.346;2022-12-29T15:11:48;11.00;;;2.00;;
51987;SDS011;38003;52.012;4.346;2022-12-29T15:14:28;9.90;;;1.67;;
51987;SDS011;38003;52.012;4.346;2022-12-29T15:17:01;10.27;;;2.33;;
51987;SDS011;38003;52.012;4.346;2022-12-29T15:19:36;11.57;;;2.23;;
51987;SDS011;38003;52.012;4.346;2022-12-29T15:22:04;10.67;;;2.27;;
51987;SDS011;38003;52.012;4.346;2022-12-29T15:24:33;11.20;;;2.37;;